createdAt,value
2017-04-02T00:00:41.967Z,89
2017-04-02T00:01:44.223Z,88.9
2017-04-02T00:02:46.056Z,88.3
2017-04-02T00:03:48.230Z,88.5
2017-04-02T00:04:50.063Z,90.7
2017-04-02T00:05:51.893Z,91.9
2017-04-02T00:06:54.064Z,90.6
2017-04-02T00:07:55.895Z,90.4
2017-04-02T00:08:57.728Z,89.6
2017-04-02T00:09:59.568Z,90.2
2017-04-02T00:11:01.411Z,88.9
2017-04-02T00:12:03.274Z,87
2017-04-02T00:13:05.109Z,86.7
2017-04-02T00:14:06.937Z,87.3
2017-04-02T00:15:09.039Z,86.7
2017-04-02T00:16:11.211Z,85.6
2017-04-02T00:17:13.048Z,85.4
2017-04-02T00:18:14.873Z,85.4
2017-04-02T00:19:16.708Z,86.6
2017-04-02T00:20:18.878Z,87.4
2017-04-02T00:21:20.714Z,87.5
2017-04-02T00:22:22.990Z,87.4
2017-04-02T00:23:24.817Z,86.7
2017-04-02T00:24:26.652Z,86.1
2017-04-02T00:25:28.521Z,86.5
2017-04-02T00:26:30.703Z,86
2017-04-02T00:27:32.519Z,85.7
2017-04-02T00:28:34.360Z,85.9
2017-04-02T00:29:36.627Z,86.1
2017-04-02T00:30:38.458Z,86.6
2017-04-02T00:31:40.284Z,86.5
2017-04-02T00:32:42.119Z,87.1
2017-04-02T00:33:43.953Z,86.9
2017-04-02T00:34:45.817Z,86.5
2017-04-02T00:35:47.660Z,87.5
2017-04-02T00:36:49.829Z,90.3
2017-04-02T00:37:52.053Z,92
2017-04-02T00:38:53.879Z,92.9
2017-04-02T00:39:55.715Z,93.7
2017-04-02T00:40:57.888Z,93.8
2017-04-02T00:41:59.724Z,94.4
2017-04-02T00:43:01.558Z,94.7
2017-04-02T00:44:03.383Z,95.1
2017-04-02T00:45:05.218Z,95.5
2017-04-02T00:46:07.053Z,95.7
2017-04-02T00:47:08.889Z,96.2
2017-04-02T00:48:10.721Z,95.3
2017-04-02T00:49:12.553Z,93.5
2017-04-02T00:50:14.390Z,93.2
2017-04-02T00:51:16.219Z,93.1
2017-04-02T00:52:18.051Z,93.2
2017-04-02T00:53:19.880Z,93.5
2017-04-02T00:54:21.708Z,93.2
2017-04-02T00:55:23.541Z,93.7
2017-04-02T00:56:25.367Z,93.8
2017-04-02T00:57:27.560Z,94
2017-04-02T00:58:29.390Z,93.7
2017-04-02T00:59:31.225Z,94.1
2017-04-02T01:00:33.053Z,94.7
2017-04-02T01:01:34.939Z,94.5
2017-04-02T01:02:36.771Z,94.8
2017-04-02T01:03:38.939Z,95
2017-04-02T01:04:40.775Z,95.6
2017-04-02T01:05:42.607Z,96.2
2017-04-02T01:06:44.437Z,96.5
2017-04-02T01:07:46.276Z,97
2017-04-02T01:08:48.092Z,97.2
2017-04-02T01:09:49.920Z,97.6
2017-04-02T01:10:52.444Z,97.7
2017-04-02T01:11:54.279Z,97.7
2017-04-02T01:12:56.145Z,98.4
2017-04-02T01:13:57.984Z,98.7
2017-04-02T01:14:59.812Z,99.1
2017-04-02T01:16:01.642Z,99.2
2017-04-02T01:17:03.480Z,99.7
2017-04-02T01:18:05.305Z,99.7
2017-04-02T01:19:07.475Z,100
2017-04-02T01:20:09.303Z,100
2017-04-02T01:21:11.621Z,100
2017-04-02T01:22:13.453Z,100
2017-04-02T01:23:15.288Z,100
2017-04-02T01:24:17.122Z,100
2017-04-02T01:25:18.958Z,100
2017-04-02T01:26:20.789Z,100
2017-04-02T01:27:22.615Z,100
2017-04-02T01:28:24.438Z,100
2017-04-02T01:29:26.273Z,100
2017-04-02T01:30:28.101Z,100
2017-04-02T01:31:29.928Z,100
2017-04-02T01:32:31.759Z,100
2017-04-02T01:33:33.586Z,100
2017-04-02T01:34:35.422Z,100
2017-04-02T01:35:37.252Z,100
2017-04-02T01:36:39.075Z,100
2017-04-02T01:37:40.921Z,100
2017-04-02T01:38:42.752Z,100
2017-04-02T01:39:44.585Z,100
2017-04-02T01:40:46.412Z,100
2017-04-02T01:41:48.247Z,100
2017-04-02T01:42:50.085Z,100
2017-04-02T01:43:51.908Z,100
2017-04-02T01:44:53.744Z,100
2017-04-02T01:45:55.571Z,100
2017-04-02T01:46:57.414Z,100
2017-04-02T01:47:59.242Z,100
2017-04-02T01:49:01.077Z,100
2017-04-02T01:50:03.241Z,100
2017-04-02T01:51:05.077Z,100
2017-04-02T01:52:07.247Z,100
2017-04-02T01:53:09.076Z,100
2017-04-02T01:54:11.239Z,100
2017-04-02T01:55:13.074Z,100
2017-04-02T01:56:14.909Z,100
2017-04-02T01:57:16.733Z,100
2017-04-02T01:58:18.575Z,100
2017-04-02T01:59:20.398Z,100
2017-04-02T02:00:22.234Z,100
2017-04-02T02:01:24.071Z,100
2017-04-02T02:02:26.235Z,100
2017-04-02T02:03:28.069Z,100
2017-04-02T02:04:29.901Z,100
2017-04-02T02:05:31.726Z,100
2017-04-02T02:06:33.548Z,100
2017-04-02T02:07:35.382Z,100
2017-04-02T02:08:37.213Z,100
2017-04-02T02:09:39.041Z,100
2017-04-02T02:10:40.876Z,100
2017-04-02T02:11:42.703Z,100
2017-04-02T02:12:44.534Z,100
2017-04-02T02:13:46.400Z,100
2017-04-02T02:14:48.232Z,100
2017-04-02T02:15:50.065Z,100
2017-04-02T02:16:51.896Z,100
2017-04-02T02:17:53.724Z,100
2017-04-02T02:18:55.562Z,100
2017-04-02T02:19:57.397Z,100
2017-04-02T02:20:59.229Z,100
2017-04-02T02:22:01.062Z,100
2017-04-02T02:23:02.886Z,100
2017-04-02T02:24:05.069Z,100
2017-04-02T02:25:06.895Z,100
2017-04-02T02:26:08.733Z,100
2017-04-02T02:27:10.563Z,100
2017-04-02T02:28:12.407Z,100
2017-04-02T02:29:14.235Z,100
2017-04-02T02:30:16.069Z,100
2017-04-02T02:31:17.891Z,100
2017-04-02T02:32:19.727Z,100
2017-04-02T02:33:21.562Z,100
2017-04-02T02:34:23.395Z,100
2017-04-02T02:35:25.251Z,100
2017-04-02T02:36:27.414Z,100
2017-04-02T02:37:29.631Z,100
2017-04-02T02:38:31.457Z,100
2017-04-02T02:39:33.294Z,100
2017-04-02T02:40:35.460Z,100
2017-04-02T02:41:37.288Z,100
2017-04-02T02:42:39.468Z,100
2017-04-02T02:43:41.300Z,100
2017-04-02T02:44:43.134Z,100
2017-04-02T02:45:44.960Z,100
2017-04-02T02:46:46.795Z,100
2017-04-02T02:47:48.624Z,100
2017-04-02T02:48:50.461Z,100
2017-04-02T02:49:52.294Z,100
2017-04-02T02:50:54.125Z,100
2017-04-02T02:51:55.951Z,100
2017-04-02T02:52:57.788Z,100
2017-04-02T02:53:59.616Z,100
2017-04-02T02:55:01.452Z,100
2017-04-02T02:56:03.614Z,100
2017-04-02T02:57:05.444Z,100
2017-04-02T02:58:07.274Z,100
2017-04-02T02:59:09.107Z,100
2017-04-02T03:00:10.941Z,100
2017-04-02T03:01:12.775Z,100
2017-04-02T03:02:14.612Z,100
2017-04-02T03:03:16.445Z,100
2017-04-02T03:04:18.275Z,100
2017-04-02T03:05:20.104Z,100
2017-04-02T03:06:21.935Z,100
2017-04-02T03:07:23.768Z,100
2017-04-02T03:08:25.950Z,100
2017-04-02T03:09:27.811Z,100
2017-04-02T03:10:29.642Z,100
2017-04-02T03:11:31.473Z,100
2017-04-02T03:12:33.640Z,100
2017-04-02T03:13:35.467Z,100
2017-04-02T03:14:37.289Z,100
2017-04-02T03:15:39.130Z,100
2017-04-02T03:16:40.954Z,100
2017-04-02T03:17:42.790Z,100
2017-04-02T03:18:44.613Z,100
2017-04-02T03:19:46.459Z,100
2017-04-02T03:20:48.287Z,100
2017-04-02T03:21:50.117Z,100
2017-04-02T03:22:51.955Z,100
2017-04-02T03:23:53.812Z,100
2017-04-02T03:24:55.648Z,100
2017-04-02T03:25:57.490Z,100
2017-04-02T03:26:59.677Z,100
2017-04-02T03:28:01.521Z,100
2017-04-02T03:29:03.342Z,100
2017-04-02T03:30:05.186Z,100
2017-04-02T03:31:07.356Z,100
2017-04-02T03:32:09.188Z,100
2017-04-02T03:33:11.011Z,100
2017-04-02T03:34:12.840Z,100
2017-04-02T03:35:14.676Z,100
2017-04-02T03:36:16.511Z,100
2017-04-02T03:37:18.339Z,100
2017-04-02T03:38:20.176Z,100
2017-04-02T03:39:22.001Z,100
2017-04-02T03:40:23.833Z,100
2017-04-02T03:41:26.010Z,100
2017-04-02T03:42:28.174Z,100
2017-04-02T03:43:29.998Z,100
2017-04-02T03:44:31.872Z,100
2017-04-02T03:45:33.696Z,100
2017-04-02T03:46:35.531Z,100
2017-04-02T03:47:37.358Z,100
2017-04-02T03:48:39.193Z,100
2017-04-02T03:49:41.026Z,100
2017-04-02T03:50:42.856Z,100
2017-04-02T03:51:44.691Z,100
2017-04-02T03:52:46.519Z,100
2017-04-02T03:53:48.349Z,100
2017-04-02T03:54:50.182Z,100
2017-04-02T03:55:52.010Z,100
2017-04-02T03:56:54.225Z,100
2017-04-02T03:57:56.057Z,100
2017-04-02T03:58:57.887Z,100
2017-04-02T03:59:59.715Z,100
2017-04-02T04:01:01.548Z,100
2017-04-02T04:02:03.396Z,100
2017-04-02T04:03:05.256Z,100
2017-04-02T04:04:07.096Z,100
2017-04-02T04:05:08.920Z,100
2017-04-02T04:06:10.751Z,100
2017-04-02T04:07:12.933Z,100
2017-04-02T04:08:14.763Z,100
2017-04-02T04:09:16.597Z,100
2017-04-02T04:10:18.426Z,100
2017-04-02T04:11:20.261Z,100
2017-04-02T04:12:22.091Z,100
2017-04-02T04:13:23.972Z,100
2017-04-02T04:14:26.168Z,100
2017-04-02T04:15:27.999Z,100
2017-04-02T04:16:29.831Z,100
2017-04-02T04:17:31.654Z,100
2017-04-02T04:18:33.494Z,100
2017-04-02T04:19:35.318Z,100
2017-04-02T04:20:37.146Z,100
2017-04-02T04:21:38.982Z,100
2017-04-02T04:22:40.859Z,100
2017-04-02T04:23:42.689Z,100
2017-04-02T04:24:44.523Z,100
2017-04-02T04:25:46.362Z,100
2017-04-02T04:26:48.536Z,100
2017-04-02T04:27:50.370Z,100
2017-04-02T04:28:52.202Z,100
2017-04-02T04:29:54.030Z,100
2017-04-02T04:30:55.860Z,100
2017-04-02T04:31:57.699Z,100
2017-04-02T04:32:59.529Z,100
2017-04-02T04:34:01.360Z,100
2017-04-02T04:35:03.558Z,100
2017-04-02T04:36:05.404Z,100
2017-04-02T04:37:07.250Z,100
2017-04-02T04:38:09.084Z,100
2017-04-02T04:39:10.919Z,100
2017-04-02T04:40:12.752Z,100
2017-04-02T04:41:14.629Z,100
2017-04-02T04:42:16.454Z,100
2017-04-02T04:43:18.632Z,100
2017-04-02T04:44:20.455Z,100
2017-04-02T04:45:22.295Z,100
2017-04-02T04:46:24.463Z,100
2017-04-02T04:47:26.303Z,100
2017-04-02T04:48:28.156Z,100
2017-04-02T04:49:30.000Z,100
2017-04-02T04:50:31.835Z,100
2017-04-02T04:51:33.654Z,100
2017-04-02T04:52:35.494Z,100
2017-04-02T04:53:37.327Z,100
2017-04-02T04:54:39.158Z,100
2017-04-02T04:55:40.996Z,100
2017-04-02T04:56:42.820Z,100
2017-04-02T04:57:44.647Z,100
2017-04-02T04:58:46.471Z,100
2017-04-02T04:59:48.315Z,100
2017-04-02T05:00:50.174Z,100
2017-04-02T05:01:52.007Z,100
2017-04-02T05:02:53.852Z,100
2017-04-02T05:03:55.698Z,100
2017-04-02T05:04:57.537Z,100
2017-04-02T05:05:59.712Z,100
2017-04-02T05:07:01.586Z,100
2017-04-02T05:08:03.415Z,100
2017-04-02T05:09:05.248Z,100
2017-04-02T05:10:07.086Z,100
2017-04-02T05:11:08.924Z,100
2017-04-02T05:12:10.761Z,100
2017-04-02T05:13:12.927Z,100
2017-04-02T05:14:14.758Z,100
2017-04-02T05:15:16.596Z,100
2017-04-02T05:16:18.428Z,100
2017-04-02T05:17:20.267Z,100
2017-04-02T05:18:22.103Z,100
2017-04-02T05:19:24.272Z,100
2017-04-02T05:20:26.098Z,100
2017-04-02T05:21:27.941Z,100
2017-04-02T05:22:29.778Z,100
2017-04-02T05:23:31.622Z,100
2017-04-02T05:24:33.451Z,100
2017-04-02T05:25:35.281Z,100
2017-04-02T05:26:37.119Z,100
2017-04-02T05:27:39.279Z,100
2017-04-02T05:28:41.115Z,100
2017-04-02T05:29:42.948Z,100
2017-04-02T05:30:44.859Z,100
2017-04-02T05:31:46.704Z,100
2017-04-02T05:32:48.596Z,100
2017-04-02T05:33:50.446Z,100
2017-04-02T05:34:52.279Z,100
2017-04-02T05:35:54.501Z,100
2017-04-02T05:36:56.323Z,100
2017-04-02T05:37:58.171Z,100
2017-04-02T05:39:00.009Z,100
2017-04-02T05:40:02.182Z,100
2017-04-02T05:41:04.009Z,100
2017-04-02T05:42:06.191Z,100
2017-04-02T05:43:08.028Z,100
2017-04-02T05:44:09.862Z,100
2017-04-02T05:45:11.694Z,100
2017-04-02T05:46:13.531Z,100
2017-04-02T05:47:15.370Z,100
2017-04-02T05:48:17.207Z,100
2017-04-02T05:49:19.027Z,100
2017-04-02T05:50:20.859Z,100
2017-04-02T05:51:23.035Z,100
2017-04-02T05:52:25.208Z,100
2017-04-02T05:53:27.035Z,100
2017-04-02T05:54:28.902Z,100
2017-04-02T05:55:30.727Z,100
2017-04-02T05:56:32.551Z,100
2017-04-02T05:57:34.386Z,100
2017-04-02T05:58:36.213Z,100
2017-04-02T05:59:38.039Z,100
2017-04-02T06:00:40.214Z,100
2017-04-02T06:01:42.038Z,100
2017-04-02T06:02:43.868Z,100
2017-04-02T06:03:45.689Z,100
2017-04-02T06:04:47.522Z,100
2017-04-02T06:05:49.356Z,100
2017-04-02T06:06:51.185Z,100
2017-04-02T06:07:53.355Z,100
2017-04-02T06:08:55.185Z,100
2017-04-02T06:09:57.018Z,100
2017-04-02T06:10:58.851Z,100
2017-04-02T06:12:00.682Z,100
2017-04-02T06:13:02.515Z,100
2017-04-02T06:14:04.349Z,100
2017-04-02T06:15:06.181Z,100
2017-04-02T06:16:08.005Z,100
2017-04-02T06:17:09.834Z,100
2017-04-02T06:18:11.672Z,100
2017-04-02T06:19:13.838Z,100
2017-04-02T06:20:15.671Z,100
2017-04-02T06:21:17.499Z,100
2017-04-02T06:22:19.356Z,100
2017-04-02T06:23:21.190Z,100
2017-04-02T06:24:23.024Z,100
2017-04-02T06:25:25.205Z,100
2017-04-02T06:26:27.031Z,100
2017-04-02T06:27:28.868Z,100
2017-04-02T06:28:30.730Z,100
2017-04-02T06:29:32.571Z,100
2017-04-02T06:30:34.401Z,100
2017-04-02T06:31:36.229Z,100
2017-04-02T06:32:38.064Z,100
2017-04-02T06:33:39.890Z,100
2017-04-02T06:34:41.719Z,100
2017-04-02T06:35:43.538Z,100
2017-04-02T06:36:45.371Z,100
2017-04-02T06:37:47.195Z,100
2017-04-02T06:38:49.037Z,100
2017-04-02T06:39:50.878Z,100
2017-04-02T06:40:52.718Z,100
2017-04-02T06:41:54.558Z,100
2017-04-02T06:42:56.396Z,100
2017-04-02T06:43:58.227Z,100
2017-04-02T06:45:00.048Z,100
2017-04-02T06:46:01.885Z,100
2017-04-02T06:47:03.728Z,100
2017-04-02T06:48:05.553Z,100
2017-04-02T06:49:07.387Z,100
2017-04-02T06:50:09.569Z,100
2017-04-02T06:51:11.398Z,100
2017-04-02T06:52:13.223Z,100
2017-04-02T06:53:15.065Z,100
2017-04-02T06:54:17.223Z,100
2017-04-02T06:55:19.057Z,100
2017-04-02T06:56:20.891Z,100
2017-04-02T06:57:22.722Z,100
2017-04-02T06:58:24.880Z,100
2017-04-02T06:59:26.711Z,100
2017-04-02T07:00:28.589Z,100
2017-04-02T07:01:30.883Z,100
2017-04-02T07:02:33.073Z,100
2017-04-02T07:03:34.907Z,100
2017-04-02T07:04:36.769Z,100
2017-04-02T07:05:38.605Z,100
2017-04-02T07:06:40.443Z,100
2017-04-02T07:07:42.272Z,100
2017-04-02T07:08:44.108Z,100
2017-04-02T07:09:45.937Z,100
2017-04-02T07:10:47.777Z,100
2017-04-02T07:11:49.835Z,100
2017-04-02T07:12:51.799Z,100
2017-04-02T07:13:54.027Z,100
2017-04-02T07:14:55.922Z,100
2017-04-02T07:15:57.770Z,100
2017-04-02T07:16:59.590Z,100
2017-04-02T07:18:01.417Z,100
2017-04-02T07:19:03.245Z,100
2017-04-02T07:20:05.084Z,100
2017-04-02T07:21:06.923Z,100
2017-04-02T07:22:08.757Z,100
2017-04-02T07:23:10.940Z,100
2017-04-02T07:24:12.806Z,100
2017-04-02T07:25:15.152Z,100
2017-04-02T07:26:17.323Z,100
2017-04-02T07:27:19.154Z,100
2017-04-02T07:28:20.993Z,100
2017-04-02T07:29:24.925Z,100
2017-04-02T07:30:26.764Z,100
2017-04-02T07:31:28.598Z,100
2017-04-02T07:32:30.431Z,100
2017-04-02T07:33:32.252Z,100
2017-04-02T07:34:34.083Z,100
2017-04-02T07:35:35.918Z,100
2017-04-02T07:36:37.743Z,100
2017-04-02T07:37:39.615Z,100
2017-04-02T07:38:41.456Z,100
2017-04-02T07:39:43.281Z,100
2017-04-02T07:40:45.114Z,100
2017-04-02T07:41:46.945Z,100
2017-04-02T07:42:48.786Z,100
2017-04-02T07:43:50.620Z,100
2017-04-02T07:44:52.452Z,100
2017-04-02T07:45:54.615Z,100
2017-04-02T07:46:56.452Z,100
2017-04-02T07:47:58.288Z,100
2017-04-02T07:49:00.111Z,100
2017-04-02T07:50:01.942Z,100
2017-04-02T07:51:03.774Z,100
2017-04-02T07:52:05.618Z,100
2017-04-02T07:53:07.448Z,100
2017-04-02T07:54:09.278Z,100
2017-04-02T07:55:11.109Z,100
2017-04-02T07:56:12.930Z,100
2017-04-02T07:57:14.762Z,100
2017-04-02T07:58:16.592Z,100
2017-04-02T07:59:18.423Z,100
2017-04-02T08:00:20.247Z,100
2017-04-02T08:01:22.420Z,100
2017-04-02T08:02:24.594Z,100
2017-04-02T08:03:26.418Z,100
2017-04-02T08:04:28.252Z,100
2017-04-02T08:05:30.087Z,100
2017-04-02T08:06:31.923Z,100
2017-04-02T08:07:33.753Z,99.8
2017-04-02T08:08:35.590Z,99.8
2017-04-02T08:09:37.747Z,100
2017-04-02T08:10:39.581Z,99.2
2017-04-02T08:11:41.753Z,99.3
2017-04-02T08:12:43.590Z,98.8
2017-04-02T08:13:45.421Z,98.9
2017-04-02T08:14:47.258Z,99
2017-04-02T08:15:49.089Z,99.6
2017-04-02T08:16:51.272Z,99.2
2017-04-02T08:17:53.102Z,99.1
2017-04-02T08:18:54.928Z,99.4
2017-04-02T08:19:56.753Z,97.9
2017-04-02T08:20:58.594Z,98.5
2017-04-02T08:22:00.422Z,98
2017-04-02T08:23:02.256Z,97.5
2017-04-02T08:24:04.096Z,97.6
2017-04-02T08:25:06.271Z,96.6
2017-04-02T08:26:08.107Z,98
2017-04-02T08:27:09.936Z,97.4
2017-04-02T08:28:12.106Z,98.2
2017-04-02T08:29:13.943Z,98.9
2017-04-02T08:30:15.778Z,97.1
2017-04-02T08:31:17.608Z,97.6
2017-04-02T08:32:19.436Z,97.1
2017-04-02T08:33:21.269Z,96.9
2017-04-02T08:34:23.096Z,96.9
2017-04-02T08:35:25.268Z,96.1
2017-04-02T08:36:27.098Z,96.6
2017-04-02T08:37:28.930Z,96.7
2017-04-02T08:38:30.761Z,97.7
2017-04-02T08:39:32.594Z,96.2
2017-04-02T08:40:34.425Z,96.5
2017-04-02T08:41:36.257Z,96.1
2017-04-02T08:42:38.427Z,96.6
2017-04-02T08:43:40.258Z,96.4
2017-04-02T08:44:42.083Z,96.2
2017-04-02T08:45:43.921Z,96.1
2017-04-02T08:46:45.750Z,96.9
2017-04-02T08:47:47.918Z,96.7
2017-04-02T08:48:49.741Z,95.8
2017-04-02T08:49:51.576Z,96.9
2017-04-02T08:50:53.434Z,96.2
2017-04-02T08:51:55.265Z,96.4
2017-04-02T08:52:57.106Z,96.4
2017-04-02T08:53:58.942Z,97.1
2017-04-02T08:55:00.786Z,96.1
2017-04-02T08:56:02.617Z,95.5
2017-04-02T08:57:04.445Z,95.5
2017-04-02T08:58:06.317Z,95.6
2017-04-02T08:59:08.501Z,96.1
2017-04-02T09:00:10.331Z,94.6
2017-04-02T09:01:12.181Z,94.8
2017-04-02T09:02:14.019Z,94
2017-04-02T09:03:15.847Z,94.6
2017-04-02T09:04:18.070Z,94.9
2017-04-02T09:05:19.908Z,94.2
2017-04-02T09:06:22.322Z,94.9
2017-04-02T09:07:25.107Z,92.6
2017-04-02T09:08:27.597Z,92.6
2017-04-02T09:09:29.977Z,91.2
2017-04-02T09:10:32.394Z,92
2017-04-02T09:11:34.611Z,90.9
2017-04-02T09:12:36.516Z,90.8
2017-04-02T09:13:38.345Z,90.1
2017-04-02T09:14:40.527Z,91
2017-04-02T09:15:42.996Z,90.1
2017-04-02T09:16:46.234Z,90.9
2017-04-02T09:17:48.207Z,90.8
2017-04-02T09:18:59.411Z,90.8
2017-04-02T09:20:01.271Z,91.2
2017-04-02T09:21:03.902Z,91.4
2017-04-02T09:22:06.326Z,92.2
2017-04-02T09:23:08.631Z,89.6
2017-04-02T09:24:10.473Z,86.8
2017-04-02T09:25:13.062Z,84.9
2017-04-02T09:26:15.585Z,85.4
2017-04-02T09:27:17.830Z,84
2017-04-02T09:28:19.665Z,85.4
2017-04-02T09:29:22.189Z,84.4
2017-04-02T09:30:24.874Z,85.8
2017-04-02T09:31:26.795Z,84
2017-04-02T09:32:28.985Z,84.3
2017-04-02T09:33:30.866Z,84.2
2017-04-02T09:34:32.703Z,82.3
2017-04-02T09:35:34.651Z,83.8
2017-04-02T09:36:37.192Z,81.7
2017-04-02T09:37:39.394Z,82.8
2017-04-02T09:38:41.335Z,82.6
2017-04-02T09:39:43.938Z,80.8
2017-04-02T09:40:46.201Z,82.6
2017-04-02T09:41:48.991Z,82.9
2017-04-02T09:42:50.826Z,80.9
2017-04-02T09:43:52.659Z,82
2017-04-02T09:44:54.947Z,81.6
2017-04-02T09:45:56.984Z,78.4
2017-04-02T09:46:59.798Z,78.5
2017-04-02T09:48:01.642Z,79.1
2017-04-02T09:49:03.795Z,80.1
2017-04-02T09:50:05.800Z,79.3
2017-04-02T09:51:07.649Z,81
2017-04-02T09:52:09.483Z,79
2017-04-02T09:53:11.474Z,78.4
2017-04-02T09:54:13.612Z,80.1
2017-04-02T09:55:15.451Z,78.9
2017-04-02T09:56:17.279Z,78.2
2017-04-02T09:57:19.125Z,78.4
2017-04-02T09:58:20.959Z,78.4
2017-04-02T09:59:23.090Z,75.8
2017-04-02T10:00:24.929Z,77.4
2017-04-02T10:01:26.766Z,76.2
2017-04-02T10:02:28.605Z,78.1
2017-04-02T10:03:30.445Z,75
2017-04-02T10:04:32.677Z,73.3
2017-04-02T10:05:34.534Z,72.9
2017-04-02T10:06:36.370Z,71.1
2017-04-02T10:07:38.221Z,70.9
2017-04-02T10:08:40.050Z,70.9
2017-04-02T10:09:41.896Z,70.8
2017-04-02T10:10:44.062Z,70.6
2017-04-02T10:11:46.118Z,71.1
2017-04-02T10:12:47.955Z,71.1
2017-04-02T10:13:49.841Z,69.9
2017-04-02T10:14:51.676Z,68.7
2017-04-02T10:15:53.874Z,70.4
2017-04-02T10:16:55.710Z,69
2017-04-02T10:17:57.562Z,68.9
2017-04-02T10:18:59.397Z,70
2017-04-02T10:20:01.247Z,69.6
2017-04-02T10:21:03.080Z,68.5
2017-04-02T10:22:04.911Z,67.2
2017-04-02T10:23:06.756Z,66.5
2017-04-02T10:24:08.592Z,67
2017-04-02T10:25:10.444Z,66.2
2017-04-02T10:26:12.286Z,67.8
2017-04-02T10:27:14.394Z,67.3
2017-04-02T10:28:16.281Z,67
2017-04-02T10:29:18.126Z,65.7
2017-04-02T10:30:19.968Z,64.9
2017-04-02T10:31:21.812Z,64.8
2017-04-02T10:32:23.655Z,64.4
2017-04-02T10:33:25.499Z,63.6
2017-04-02T10:34:27.341Z,64.9
2017-04-02T10:35:29.418Z,63.4
2017-04-02T10:36:31.264Z,64.8
2017-04-02T10:37:33.102Z,62.6
2017-04-02T10:38:34.941Z,64.2
2017-04-02T10:39:36.782Z,62.9
2017-04-02T10:40:38.657Z,62.5
2017-04-02T10:41:40.523Z,63.2
2017-04-02T10:42:42.359Z,63.7
2017-04-02T10:43:44.457Z,61
2017-04-02T10:44:46.298Z,61.9
2017-04-02T10:45:48.494Z,59.9
2017-04-02T10:46:50.351Z,64.4
2017-04-02T10:47:52.213Z,63.7
2017-04-02T10:48:54.064Z,63
2017-04-02T10:49:55.906Z,61.1
2017-04-02T10:50:58.159Z,63.7
2017-04-02T10:52:00.004Z,64.6
2017-04-02T10:53:01.844Z,63.3
2017-04-02T10:54:03.686Z,64.7
2017-04-02T10:55:05.531Z,62.3
2017-04-02T10:56:07.378Z,61.8
2017-04-02T10:57:09.601Z,63.9
2017-04-02T10:58:11.433Z,64.2
2017-04-02T10:59:13.288Z,63
2017-04-02T11:00:15.480Z,64.2
2017-04-02T11:01:17.325Z,63.7
2017-04-02T11:02:19.176Z,62.3
2017-04-02T11:03:21.234Z,62.1
2017-04-02T11:04:23.077Z,64.3
2017-04-02T11:05:24.928Z,62.9
2017-04-02T11:06:26.781Z,61.6
2017-04-02T11:07:28.614Z,61.3
2017-04-02T11:08:30.466Z,62.4
2017-04-02T11:09:32.316Z,61.3
2017-04-02T11:10:34.228Z,59.1
2017-04-02T11:11:36.066Z,60.4
2017-04-02T11:12:37.914Z,60
2017-04-02T11:13:39.767Z,58.4
2017-04-02T11:14:41.610Z,58.4
2017-04-02T11:15:43.473Z,59.5
2017-04-02T11:16:45.316Z,60.2
2017-04-02T11:17:47.165Z,60.6
2017-04-02T11:18:49.005Z,58.9
2017-04-02T11:19:50.845Z,56.5
2017-04-02T11:20:52.683Z,57.7
2017-04-02T11:21:54.534Z,56.4
2017-04-02T11:22:56.385Z,56.8
2017-04-02T11:23:58.239Z,58
2017-04-02T11:25:00.080Z,58
2017-04-02T11:26:01.938Z,57
2017-04-02T11:27:04.146Z,59.2
2017-04-02T11:28:06.003Z,58.3
2017-04-02T11:29:08.187Z,58.4
2017-04-02T11:30:10.033Z,59.2
2017-04-02T11:31:11.898Z,57.3
2017-04-02T11:32:13.743Z,56.8
2017-04-02T11:33:15.959Z,57.8
2017-04-02T11:34:17.806Z,59.5
2017-04-02T11:35:19.650Z,60.7
2017-04-02T11:36:21.509Z,59.9
2017-04-02T11:37:23.355Z,60.6
2017-04-02T11:38:25.536Z,60.2
2017-04-02T11:39:27.381Z,59.9
2017-04-02T11:40:29.230Z,59.8
2017-04-02T11:41:31.075Z,60.1
2017-04-02T11:42:33.000Z,59.5
2017-04-02T11:43:34.849Z,59.1
2017-04-02T11:44:36.699Z,58.5
2017-04-02T11:45:38.543Z,56.5
2017-04-02T11:46:40.419Z,57.4
2017-04-02T11:47:42.263Z,59.4
2017-04-02T11:48:44.447Z,57.3
2017-04-02T11:49:46.640Z,58.8
2017-04-02T11:50:48.481Z,60.3
2017-04-02T11:51:50.320Z,60.8
2017-04-02T11:52:52.171Z,60.7
2017-04-02T11:53:54.014Z,61.1
2017-04-02T11:54:55.857Z,59.3
2017-04-02T11:55:57.696Z,59.2
2017-04-02T11:56:59.545Z,61
2017-04-02T11:58:01.392Z,59.4
2017-04-02T11:59:03.242Z,60
2017-04-02T12:00:05.078Z,58.7
2017-04-02T12:01:06.928Z,59.6
2017-04-02T12:02:09.119Z,58.5
2017-04-02T12:03:10.959Z,57.8
2017-04-02T12:04:13.159Z,57.8
2017-04-02T12:05:15.039Z,57.3
2017-04-02T12:06:16.884Z,58.1
2017-04-02T12:07:19.063Z,57.8
2017-04-02T12:08:21.251Z,58
2017-04-02T12:09:23.081Z,59.1
2017-04-02T12:10:24.932Z,58.3
2017-04-02T12:11:26.768Z,58.3
2017-04-02T12:12:28.610Z,56.9
2017-04-02T12:13:30.454Z,56.3
2017-04-02T12:14:32.297Z,56.7
2017-04-02T12:15:34.132Z,56.8
2017-04-02T12:16:35.982Z,57.5
2017-04-02T12:17:37.829Z,57.1
2017-04-02T12:18:39.680Z,57.3
2017-04-02T12:19:41.521Z,57.8
2017-04-02T12:20:43.430Z,57.1
2017-04-02T12:21:45.314Z,57.5
2017-04-02T12:22:47.155Z,57.7
2017-04-02T12:23:49.001Z,56
2017-04-02T12:24:50.846Z,55.3
2017-04-02T12:25:52.699Z,54.9
2017-04-02T12:26:54.545Z,54.6
2017-04-02T12:27:56.386Z,55.5
2017-04-02T12:28:58.228Z,55
2017-04-02T12:30:00.414Z,55.5
2017-04-02T12:31:02.260Z,57.6
2017-04-02T12:32:04.100Z,56.8
2017-04-02T12:33:05.954Z,56.4
2017-04-02T12:34:07.806Z,56
2017-04-02T12:35:09.659Z,56.6
2017-04-02T12:36:11.511Z,56.4
2017-04-02T12:37:13.360Z,56.9
2017-04-02T12:38:15.540Z,55.8
2017-04-02T12:39:17.391Z,56.5
2017-04-02T12:40:19.235Z,56.5
2017-04-02T12:41:21.084Z,57.6
2017-04-02T12:42:22.968Z,57
2017-04-02T12:43:24.814Z,56.6
2017-04-02T12:44:26.661Z,57.8
2017-04-02T12:45:28.511Z,57.6
2017-04-02T12:46:30.351Z,56
2017-04-02T12:47:32.200Z,56.4
2017-04-02T12:48:34.046Z,55.5
2017-04-02T12:49:35.895Z,54.4
2017-04-02T12:50:37.739Z,55.9
2017-04-02T12:51:39.604Z,54.3
2017-04-02T12:52:41.452Z,52.6
2017-04-02T12:53:43.300Z,53
2017-04-02T12:54:45.150Z,52.1
2017-04-02T12:55:46.998Z,53.2
2017-04-02T12:56:48.850Z,53.9
2017-04-02T12:57:50.692Z,54.4
2017-04-02T12:58:52.544Z,55.4
2017-04-02T12:59:54.384Z,56
2017-04-02T13:00:56.228Z,56.7
2017-04-02T13:01:58.082Z,57
2017-04-02T13:03:00.264Z,58
2017-04-02T13:04:02.448Z,56.9
2017-04-02T13:05:04.306Z,55.6
2017-04-02T13:06:06.495Z,55.4
2017-04-02T13:07:08.334Z,55.7
2017-04-02T13:08:10.184Z,56.5
2017-04-02T13:09:12.030Z,56.4
2017-04-02T13:10:13.876Z,57
2017-04-02T13:11:15.720Z,56.6
2017-04-02T13:12:17.567Z,55.9
2017-04-02T13:13:19.408Z,56.3
2017-04-02T13:14:21.255Z,56
2017-04-02T13:15:23.097Z,56
2017-04-02T13:16:24.942Z,56
2017-04-02T13:17:26.786Z,55.5
2017-04-02T13:18:28.636Z,55.5
2017-04-02T13:19:30.481Z,56
2017-04-02T13:20:32.325Z,55.9
2017-04-02T13:21:34.174Z,55.8
2017-04-02T13:22:36.011Z,54.6
2017-04-02T13:23:37.854Z,54.1
2017-04-02T13:24:39.702Z,53.6
2017-04-02T13:25:41.544Z,54.4
2017-04-02T13:26:43.394Z,54.3
2017-04-02T13:27:45.234Z,54.8
2017-04-02T13:28:47.073Z,54.5
2017-04-02T13:29:49.267Z,55.1
2017-04-02T13:30:51.108Z,55.3
2017-04-02T13:31:52.942Z,55.6
2017-04-02T13:32:54.794Z,55.7
2017-04-02T13:33:56.676Z,56.3
2017-04-02T13:34:58.520Z,56.1
2017-04-02T13:36:00.707Z,54.6
2017-04-02T13:37:02.548Z,54
2017-04-02T13:38:04.391Z,53.5
2017-04-02T13:39:06.228Z,53.2
2017-04-02T13:40:08.077Z,52.4
2017-04-02T13:41:09.924Z,51.8
2017-04-02T13:42:12.111Z,51.5
2017-04-02T13:43:13.961Z,51.4
2017-04-02T13:44:16.139Z,51.5
2017-04-02T13:45:17.982Z,50.1
2017-04-02T13:46:19.828Z,49.2
2017-04-02T13:47:22.056Z,48.1
2017-04-02T13:48:24.245Z,49.3
2017-04-02T13:49:26.094Z,49.5
2017-04-02T13:50:27.935Z,47.9
2017-04-02T13:51:30.097Z,47.9
2017-04-02T13:52:32.297Z,49.4
2017-04-02T13:53:34.141Z,49.8
2017-04-02T13:54:35.995Z,49.2
2017-04-02T13:55:37.834Z,49.2
2017-04-02T13:56:39.682Z,50.3
2017-04-02T13:57:41.529Z,49.6
2017-04-02T13:58:43.388Z,48.5
2017-04-02T13:59:45.582Z,48.3
2017-04-02T14:00:47.433Z,50.1